Pays
Station

 

Conditions  météo  pour  Liverpool/John Lennon Airport  -  Royaume-Uni    Royaume-Uni

  
15 °C
    
 
 

METAR pour Liverpool/John Lennon Airport :

EGGP 041650Z 16010KT 130V190 CAVOK 15/08 Q1015

 

Voici le bulletin pour Liverpool/John Lennon Airport - Royaume-Uni.
 
Le bulletin a été fait il y a 14 minutes, à 16:50 UTC .
Le vent soufflait à la vitesse de 5.1 mètres par seconde de Sud/Sud-est (160°), variant entre Sud-est (130°) et Sud (190°).
 
La température était de 15 °C, avec un point de rosée à 8 °C.
La pression atmosphérique était de 1015 hPa.
L'humidité relative était de 62.9%.
 
Il y avait pas de nuages en-dessous de 1500 mètres et pas de cumulonimbus.
 
La visibilité globale était de supérieure à 10 kilomètres.
 

 
 
 

Pays :   A   B   C   D   E   F   G   H   I   J   K   L   M   N   O   P   Q   R   S   T   U   V   W   Y   Z

 

Partenaires :  Info Météo avec Met'info
Météo Marine avec MeteoMarine.net
Infos Site  |  Infos Légales  |  Crédits  |  Confidentialité
Contactez-nous  |  Ajouter aux favoris
© 2013-2020 METAR - Tous droits réservés